Time;durP1;ratioP1;P1;durP2;ratioP2;P2;SDS_P1;SDS_P2;PMS_P1;PMS_P2;Temp;Humidity;BMP_temperature;BMP_pressure;BME280_temperature;BME280_humidity;BME280_pressure;Samples;Min_cycle;Max_cycle;Signal;HPM_P1;HPM_P2
2021/07/06 00:00:54;;;;;;;10.25;6.08;;;;;;;20.50;100.00;100247.42;1663083;85;21140;-91
2021/07/06 00:03:21;;;;;;;9.00;5.42;;;;;;;20.49;100.00;100247.58;1663027;86;20932;-84
2021/07/06 00:05:48;;;;;;;12.95;5.90;;;;;;;20.46;100.00;100242.17;1663049;86;21012;-81
2021/07/06 00:08:15;;;;;;;7.30;4.90;;;;;;;20.45;100.00;100248.42;1663220;86;20940;-82
2021/07/06 00:10:42;;;;;;;10.78;5.70;;;;;;;20.44;100.00;100248.61;1663342;85;21054;-86
2021/07/06 00:13:09;;;;;;;11.10;5.47;;;;;;;20.41;100.00;100249.79;1662991;85;21152;-82
2021/07/06 00:15:36;;;;;;;10.13;5.37;;;;;;;20.40;100.00;100253.91;1663229;86;20991;-84
2021/07/06 00:18:04;;;;;;;7.30;5.70;;;;;;;20.39;100.00;100253.08;1663059;85;21041;-86
2021/07/06 00:20:30;;;;;;;11.60;6.03;;;;;;;20.38;100.00;100248.00;1663485;86;20956;-82
2021/07/06 00:22:59;;;;;;;10.65;5.67;;;;;;;20.39;100.00;100253.60;1663137;86;21000;-82
2021/07/06 00:25:26;;;;;;;12.37;5.62;;;;;;;20.38;100.00;100254.09;1663216;86;21131;-89
2021/07/06 00:27:53;;;;;;;5.83;5.20;;;;;;;20.37;100.00;100255.08;1640531;85;21055;-83
2021/07/06 00:30:22;;;;;;;10.18;5.80;;;;;;;20.39;100.00;100255.71;1646125;86;21093;-86
2021/07/06 00:32:49;;;;;;;8.10;5.30;;;;;;;20.38;100.00;100254.09;1655373;86;21459;-87
2021/07/06 00:35:16;;;;;;;8.93;5.53;;;;;;;20.40;100.00;100255.22;1644022;86;20998;-85
2021/07/06 00:37:43;;;;;;;10.35;5.62;;;;;;;20.40;100.00;100262.63;1630335;87;21977;-79
2021/07/06 00:40:10;;;;;;;9.63;5.28;;;;;;;20.41;100.00;100262.97;1642947;86;20900;-82
2021/07/06 00:42:42;;;;;;;8.88;5.83;;;;;;;20.40;100.00;100261.31;1658920;86;20960;-78
2021/07/06 00:45:12;;;;;;;10.23;5.58;;;;;;;20.39;100.00;100263.62;1617236;88;21566;-80
2021/07/06 00:47:40;;;;;;;8.28;5.55;;;;;;;20.39;100.00;100268.89;1649226;86;20975;-85
2021/07/06 00:50:11;;;;;;;9.35;5.53;;;;;;;20.40;100.00;100268.39;1638476;86;21859;-76
2021/07/06 00:52:38;;;;;;;10.95;6.35;;;;;;;20.39;100.00;100266.78;1644036;86;20908;-82
2021/07/06 00:55:06;;;;;;;13.68;6.60;;;;;;;20.38;100.00;100262.00;1630209;87;21036;-80
2021/07/06 00:57:34;;;;;;;13.40;6.33;;;;;;;20.40;100.00;100267.91;1647081;86;21015;-83
2021/07/06 01:00:07;;;;;;;8.75;5.53;;;;;;;20.39;100.00;100267.58;1663583;86;21470;-85
2021/07/06 01:02:34;;;;;;;9.88;5.53;;;;;;;20.41;100.00;100271.37;1660817;86;21167;-84
2021/07/06 01:05:01;;;;;;;11.03;5.85;;;;;;;20.42;100.00;100283.56;1638770;86;21411;-81
2021/07/06 01:07:27;;;;;;;10.13;5.92;;;;;;;20.42;100.00;100280.41;1662781;86;21027;-82
2021/07/06 01:09:54;;;;;;;10.13;6.10;;;;;;;20.41;100.00;100272.69;1636978;86;21000;-82
2021/07/06 01:12:21;;;;;;;13.15;6.42;;;;;;;20.39;100.00;100277.32;1637165;86;21067;-85
2021/07/06 01:14:48;;;;;;;8.10;5.78;;;;;;;20.38;100.00;100276.98;1643855;86;21085;-87
2021/07/06 01:17:14;;;;;;;11.12;5.65;;;;;;;20.37;100.00;100280.61;1630057;88;21030;-84
2021/07/06 01:19:43;;;;;;;10.88;6.05;;;;;;;20.36;100.00;100278.95;1660949;86;21770;-80
2021/07/06 01:22:10;;;;;;;11.83;6.20;;;;;;;20.34;100.00;100280.46;1663769;86;21470;-86
2021/07/06 01:24:40;;;;;;;12.45;5.85;;;;;;;20.34;100.00;100278.31;1635020;86;21113;-85
2021/07/06 01:27:08;;;;;;;12.10;5.95;;;;;;;20.33;100.00;100280.13;1661007;85;21095;-86
2021/07/06 01:29:34;;;;;;;11.33;5.83;;;;;;;20.33;100.00;100272.72;1644871;86;21009;-86
2021/07/06 01:32:02;;;;;;;9.53;6.55;;;;;;;20.34;100.00;100281.78;1641595;87;20913;-82
2021/07/06 01:34:28;;;;;;;13.30;7.15;;;;;;;20.35;100.00;100282.61;1649015;87;20996;-77
2021/07/06 01:36:55;;;;;;;14.18;6.28;;;;;;;20.35;100.00;100282.11;1612124;86;21083;-84
2021/07/06 01:39:22;;;;;;;12.10;7.05;;;;;;;20.38;100.00;100284.41;1646860;86;21122;-86
2021/07/06 01:41:49;;;;;;;13.62;6.72;;;;;;;20.39;100.00;100283.91;1630841;88;20889;-79
2021/07/06 01:44:25;;;;;;;11.75;7.25;;;;;;;20.41;100.00;100283.23;1630694;88;21619;-80
2021/07/06 01:46:53;;;;;;;10.58;6.65;;;;;;;20.42;100.00;100284.36;1645584;87;21100;-84
2021/07/06 01:49:20;;;;;;;9.15;6.62;;;;;;;20.43;100.00;100282.05;1636426;87;21017;-78
2021/07/06 01:51:47;;;;;;;11.28;6.92;;;;;;;20.43;100.00;100280.73;1648200;87;21140;-82
2021/07/06 01:54:14;;;;;;;8.65;6.15;;;;;;;20.44;100.00;100282.88;1647753;87;22367;-82
2021/07/06 01:56:44;;;;;;;16.05;6.97;;;;;;;20.45;100.00;100281.89;1648207;87;21120;-80
2021/07/06 01:59:11;;;;;;;10.65;6.50;;;;;;;20.44;100.00;100284.20;1648006;87;21523;-83
2021/07/06 02:01:38;;;;;;;10.78;6.75;;;;;;;20.44;100.00;100290.30;1645470;87;21068;-77
2021/07/06 02:04:05;;;;;;;11.38;6.70;;;;;;;20.43;100.00;100295.23;1644382;87;21187;-79
2021/07/06 02:06:32;;;;;;;11.22;6.53;;;;;;;20.44;100.00;100293.42;1643751;87;20899;-83
2021/07/06 02:09:00;;;;;;;11.80;7.53;;;;;;;20.43;100.00;100295.72;1643415;87;20965;-80
2021/07/06 02:11:27;;;;;;;17.42;6.67;;;;;;;20.43;100.00;100300.50;1642745;87;21001;-83
2021/07/06 02:13:55;;;;;;;10.30;7.12;;;;;;;20.43;100.00;100303.63;1644274;86;20942;-82
2021/07/06 02:16:22;;;;;;;8.90;6.60;;;;;;;20.43;100.00;100305.78;1643816;87;21133;-79
2021/07/06 02:18:52;;;;;;;8.53;6.15;;;;;;;20.44;100.00;100303.97;1644490;86;21415;-88
2021/07/06 02:21:19;;;;;;;10.40;5.90;;;;;;;20.45;100.00;100304.30;1656528;86;20932;-91
2021/07/06 02:23:47;;;;;;;12.50;7.20;;;;;;;20.45;100.00;100310.36;1656612;86;21046;-83
2021/07/06 02:26:14;;;;;;;8.85;6.25;;;;;;;20.46;100.00;100312.51;1656395;86;20956;-87
2021/07/06 02:28:42;;;;;;;9.65;6.28;;;;;;;20.47;100.00;100312.84;1652060;85;21197;-82
2021/07/06 02:31:08;;;;;;;11.18;5.80;;;;;;;20.47;100.00;100312.84;1638758;87;21039;-86
2021/07/06 02:33:35;;;;;;;10.48;5.65;;;;;;;20.49;100.00;100321.39;1645278;86;21565;-84
2021/07/06 02:36:06;;;;;;;7.58;5.25;;;;;;;20.50;100.00;100319.09;1638425;87;20984;-82
2021/07/06 02:38:35;;;;;;;8.77;5.40;;;;;;;20.53;100.00;100331.42;1642937;86;21043;-82
2021/07/06 02:41:02;;;;;;;9.53;5.28;;;;;;;20.54;100.00;100326.48;1644415;86;21115;-86
2021/07/06 02:43:28;;;;;;;9.80;5.50;;;;;;;20.56;100.00;100335.52;1635865;87;21636;-84
2021/07/06 02:45:56;;;;;;;8.50;5.47;;;;;;;20.54;100.00;100331.76;1630006;87;21008;-84
2021/07/06 02:48:23;;;;;;;6.97;5.17;;;;;;;20.51;100.00;100333.92;1647912;87;20992;-81
2021/07/06 02:50:49;;;;;;;12.03;6.22;;;;;;;20.47;100.00;100336.56;1644105;87;21474;-83
2021/07/06 02:53:16;;;;;;;6.20;4.97;;;;;;;20.41;100.00;100335.94;1643428;87;21125;-85
2021/07/06 02:55:44;;;;;;;5.95;5.25;;;;;;;20.39;100.00;100345.84;1642426;87;21036;-85
2021/07/06 02:58:11;;;;;;;7.92;5.90;;;;;;;20.36;100.00;100352.75;1632635;86;20889;-86
2021/07/06 03:00:38;;;;;;;12.20;5.87;;;;;;;20.32;100.00;100354.94;1648429;87;21009;-83
2021/07/06 03:03:08;;;;;;;12.88;6.22;;;;;;;20.29;100.00;100352.64;1646898;86;21071;-85
2021/07/06 03:05:35;;;;;;;8.35;5.83;;;;;;;20.28;100.00;100359.38;1639099;87;21139;-82
2021/07/06 03:08:02;;;;;;;8.60;5.22;;;;;;;20.25;100.00;100359.20;1648466;87;20945;-85
2021/07/06 03:10:33;;;;;;;10.85;5.40;;;;;;;20.23;100.00;100363.80;1646123;86;21539;-87
2021/07/06 03:12:59;;;;;;;10.50;5.28;;;;;;;20.22;100.00;100359.55;1643112;86;21063;-85
2021/07/06 03:15:28;;;;;;;9.20;7.22;;;;;;;20.20;100.00;100360.20;1643192;87;20968;-85
2021/07/06 03:17:57;;;;;;;7.47;5.92;;;;;;;20.19;100.00;100360.38;1643650;86;21534;-86
2021/07/06 03:20:26;;;;;;;9.53;5.87;;;;;;;20.14;100.00;100363.52;1639051;87;21569;-82
2021/07/06 03:22:52;;;;;;;15.65;7.78;;;;;;;20.08;100.00;100361.55;1648567;86;21546;-86
2021/07/06 03:25:22;;;;;;;14.68;8.00;;;;;;;20.04;100.00;100365.02;1648611;87;20946;-84
2021/07/06 03:27:49;;;;;;;11.80;6.58;;;;;;;20.01;100.00;100368.00;1642979;86;21504;-85
2021/07/06 03:30:23;;;;;;;11.85;6.08;;;;;;;19.97;100.00;100366.68;1643499;86;21242;-80
2021/07/06 03:32:54;;;;;;;14.07;6.92;;;;;;;19.94;100.00;100363.06;1629788;88;20924;-92
2021/07/06 03:35:22;;;;;;;13.45;7.22;;;;;;;19.94;100.00;100367.55;1636707;87;21074;-90
2021/07/06 03:37:49;;;;;;;8.35;7.22;;;;;;;19.91;100.00;100369.99;1667635;86;21031;-88
2021/07/06 03:40:16;;;;;;;9.60;6.60;;;;;;;19.88;100.00;100365.06;1663737;86;21525;-88
2021/07/06 03:42:43;;;;;;;10.40;7.20;;;;;;;19.84;100.00;100361.63;1663645;86;21128;-88
2021/07/06 03:45:12;;;;;;;8.18;7.00;;;;;;;19.82;100.00;100368.86;1663455;86;21578;-84
2021/07/06 03:47:41;;;;;;;11.63;7.33;;;;;;;19.78;100.00;100360.50;1646005;86;21043;-91
2021/07/06 03:50:12;;;;;;;9.70;7.80;;;;;;;19.76;100.00;100362.46;1654202;86;20920;-86
2021/07/06 03:52:39;;;;;;;11.30;8.00;;;;;;;19.76;100.00;100370.36;1663594;86;20956;-90
2021/07/06 03:55:06;;;;;;;10.38;8.23;;;;;;;19.75;100.00;100365.28;1663828;86;21814;-90
2021/07/06 03:57:36;;;;;;;11.43;7.83;;;;;;;19.73;100.00;100372.50;1663650;86;21007;-91
2021/07/06 04:00:09;;;;;;;16.37;7.72;;;;;;;19.68;100.00;100373.02;1663607;86;21023;-90
2021/07/06 04:02:36;;;;;;;10.78;8.33;;;;;;;19.67;100.00;100369.22;1614134;86;20987;-83
2021/07/06 04:05:06;;;;;;;13.62;8.35;;;;;;;19.64;100.00;100366.44;1656432;86;21047;-90
2021/07/06 04:07:33;;;;;;;12.07;8.85;;;;;;;19.63;100.00;100371.36;1644371;86;21082;-89
2021/07/06 04:10:16;;;;;;;15.25;8.93;;;;;;;19.62;100.00;100368.42;1663696;86;21412;-85
2021/07/06 04:12:31;;;;;;;14.15;8.58;;;;;;;19.60;100.00;100366.43;1648167;86;20997;-89
2021/07/06 04:14:57;;;;;;;10.32;9.03;;;;;;;19.60;100.00;100366.92;1630140;88;21024;-87
2021/07/06 04:17:25;;;;;;;11.22;8.45;;;;;;;19.60;100.00;100371.70;1630018;88;21028;-85
2021/07/06 04:19:51;;;;;;;10.53;9.33;;;;;;;19.60;100.00;100367.75;1630466;87;21072;-86
2021/07/06 04:22:18;;;;;;;11.20;9.40;;;;;;;19.61;100.00;100369.89;1653606;86;20908;-87
2021/07/06 04:24:46;;;;;;;13.00;9.28;;;;;;;19.61;100.00;100362.81;1663703;86;21014;-89
2021/07/06 04:27:12;;;;;;;13.98;9.63;;;;;;;19.62;100.00;100362.33;1663474;86;20983;-87
2021/07/06 04:29:40;;;;;;;10.63;8.70;;;;;;;19.63;100.00;100361.32;1645677;86;20975;-83
2021/07/06 04:32:07;;;;;;;11.68;9.63;;;;;;;19.67;100.00;100366.59;1640856;87;21074;-90
2021/07/06 04:34:34;;;;;;;15.28;9.25;;;;;;;19.71;100.00;100369.22;1648331;86;21629;-80
2021/07/06 04:37:03;;;;;;;11.22;9.28;;;;;;;19.78;100.00;100372.84;1645911;86;21003;-86
2021/07/06 04:39:29;;;;;;;10.45;9.35;;;;;;;19.84;100.00;100372.99;1644754;86;20972;-85
2021/07/06 04:41:56;;;;;;;11.00;9.30;;;;;;;19.89;100.00;100375.11;1642990;85;21062;-86
2021/07/06 04:44:22;;;;;;;17.50;9.63;;;;;;;19.95;100.00;100369.16;1634739;87;21116;-86
2021/07/06 04:46:49;;;;;;;11.10;9.88;;;;;;;20.01;100.00;100370.63;1648421;85;20873;-84
2021/07/06 04:49:15;;;;;;;11.10;9.30;;;;;;;20.06;100.00;100376.23;1641398;87;21017;-88
2021/07/06 04:51:43;;;;;;;11.38;10.08;;;;;;;20.13;100.00;100375.55;1644891;87;21087;-87
2021/07/06 04:54:10;;;;;;;13.32;9.80;;;;;;;20.18;100.00;100377.17;1648794;86;20909;-81
2021/07/06 04:56:37;;;;;;;13.65;9.48;;;;;;;20.22;100.00;100384.58;1640356;86;21147;-87
2021/07/06 04:59:03;;;;;;;10.53;9.40;;;;;;;20.27;100.00;100386.23;1644215;87;21110;-83
2021/07/06 05:01:30;;;;;;;13.03;10.03;;;;;;;20.30;100.00;100387.20;1644005;86;20953;-81
2021/07/06 05:03:57;;;;;;;11.20;9.48;;;;;;;20.35;100.00;100388.02;1643964;86;21562;-86
2021/07/06 05:06:25;;;;;;;13.32;9.40;;;;;;;20.40;100.00;100388.32;1619192;87;21143;-88
2021/07/06 05:08:53;;;;;;;13.60;9.65;;;;;;;20.46;100.00;100386.31;1619316;87;21114;-87
2021/07/06 05:11:20;;;;;;;15.25;9.65;;;;;;;20.51;100.00;100390.59;1619481;87;21016;-82
2021/07/06 05:13:47;;;;;;;11.18;9.15;;;;;;;20.54;100.00;100389.76;1633083;86;21044;-89
2021/07/06 05:16:14;;;;;;;11.20;9.43;;;;;;;20.59;100.00;100389.23;1645730;86;21049;-88
2021/07/06 05:18:40;;;;;;;19.40;10.23;;;;;;;20.63;100.00;100381.30;1644561;86;21016;-88
2021/07/06 05:21:07;;;;;;;10.70;9.63;;;;;;;20.68;100.00;100375.53;1644041;86;21084;-80
2021/07/06 05:23:34;;;;;;;11.43;9.25;;;;;;;20.73;100.00;100377.13;1643912;87;21000;-89
2021/07/06 05:26:01;;;;;;;12.25;9.53;;;;;;;20.77;100.00;100371.32;1638162;87;20948;-86
2021/07/06 05:28:29;;;;;;;10.78;8.85;;;;;;;20.81;100.00;100375.26;1653733;86;21086;-83
2021/07/06 05:30:56;;;;;;;10.75;9.18;;;;;;;20.87;100.00;100382.48;1647194;86;21008;-86
2021/07/06 05:33:23;;;;;;;14.20;9.50;;;;;;;20.92;100.00;100378.84;1648825;86;21032;-86
2021/07/06 05:35:49;;;;;;;10.72;8.95;;;;;;;20.96;100.00;100384.06;1646867;85;20945;-86
2021/07/06 05:38:19;;;;;;;11.43;8.78;;;;;;;21.03;100.00;100396.06;1647419;85;21022;-86
2021/07/06 05:40:44;;;;;;;11.57;9.38;;;;;;;21.05;100.00;100405.96;1645118;85;21087;-85
2021/07/06 05:43:12;;;;;;;14.13;9.83;;;;;;;21.06;100.00;100403.63;1646422;86;20953;-87
2021/07/06 05:45:39;;;;;;;12.33;10.80;;;;;;;21.09;100.00;100402.81;1621024;86;21150;-84
2021/07/06 05:48:06;;;;;;;20.37;9.98;;;;;;;21.11;100.00;100405.29;1649562;86;21011;-89
2021/07/06 05:50:32;;;;;;;12.13;10.65;;;;;;;21.14;100.00;100406.25;1649079;86;21018;-81
2021/07/06 05:52:59;;;;;;;10.58;9.48;;;;;;;21.20;100.00;100403.41;1647859;86;20901;-79
2021/07/06 05:55:26;;;;;;;11.65;9.90;;;;;;;21.25;100.00;100401.88;1644033;85;21086;-84
2021/07/06 05:57:54;;;;;;;14.63;11.25;;;;;;;21.30;100.00;100414.06;1650208;86;21153;-81
2021/07/06 06:00:21;;;;;;;14.45;10.32;;;;;;;21.39;100.00;100419.59;1649235;86;21280;-81
2021/07/06 06:02:49;;;;;;;14.98;11.25;;;;;;;21.50;100.00;100423.16;1645748;85;21719;-85
2021/07/06 06:05:15;;;;;;;13.50;10.75;;;;;;;21.59;100.00;100430.50;1649347;85;21031;-83
2021/07/06 06:07:43;;;;;;;13.65;10.65;;;;;;;21.66;100.00;100425.33;1651763;86;21640;-81
2021/07/06 06:10:11;;;;;;;15.80;11.20;;;;;;;21.69;100.00;100435.05;1646321;85;21145;-82
2021/07/06 06:12:38;;;;;;;12.73;11.05;;;;;;;21.75;100.00;100432.18;1649452;85;21529;-83
2021/07/06 06:15:09;;;;;;;15.98;10.85;;;;;;;21.80;100.00;100437.24;1648215;86;21498;-85
2021/07/06 06:17:38;;;;;;;17.87;11.60;;;;;;;21.87;100.00;100439.49;1648142;86;21027;-81
2021/07/06 06:20:06;;;;;;;14.98;10.95;;;;;;;21.96;100.00;100439.77;1648198;86;21087;-80
2021/07/06 06:22:32;;;;;;;12.88;11.63;;;;;;;22.09;100.00;100438.65;1648234;86;21138;-83
2021/07/06 06:25:00;;;;;;;16.23;12.07;;;;;;;22.24;100.00;100445.25;1645987;86;20905;-84
2021/07/06 06:27:27;;;;;;;16.17;11.65;;;;;;;22.35;100.00;100436.89;1648304;86;21058;-82
2021/07/06 06:29:54;;;;;;;13.15;10.48;;;;;;;22.49;100.00;100437.40;1647881;86;21383;-76
2021/07/06 06:32:23;;;;;;;14.28;11.80;;;;;;;22.60;100.00;100440.88;1645396;86;21111;-85
2021/07/06 06:34:52;;;;;;;15.70;11.97;;;;;;;22.66;100.00;100440.17;1575633;86;21154;-86
2021/07/06 06:37:21;;;;;;;12.90;11.68;;;;;;;22.71;100.00;100445.42;1642855;86;21002;-81
2021/07/06 06:39:47;;;;;;;16.77;12.90;;;;;;;22.74;100.00;100442.41;1646014;85;21106;-82
2021/07/06 06:42:14;;;;;;;15.32;12.65;;;;;;;22.77;100.00;100438.89;1648099;85;21087;-82
2021/07/06 06:44:40;;;;;;;16.70;11.22;;;;;;;22.83;100.00;100437.32;1650096;86;21724;-90
2021/07/06 06:47:08;;;;;;;11.57;10.35;;;;;;;22.88;100.00;100437.07;1647898;86;21678;-82
2021/07/06 06:49:36;;;;;;;13.35;10.68;;;;;;;22.91;100.00;100438.02;1645235;85;21038;-83
2021/07/06 06:52:03;;;;;;;14.95;11.20;;;;;;;22.91;100.00;100432.73;1648479;86;21078;-84
2021/07/06 06:54:32;;;;;;;13.58;10.58;;;;;;;22.97;100.00;100429.86;1647295;86;21043;-84
2021/07/06 06:56:59;;;;;;;13.03;10.35;;;;;;;23.03;100.00;100428.62;1646572;85;21134;-79
2021/07/06 06:59:25;;;;;;;11.78;10.55;;;;;;;23.04;100.00;100437.34;1645578;85;21128;-83
2021/07/06 07:02:16;;;;;;;13.08;10.20;;;;;;;23.04;100.00;100437.34;1653861;85;20900;-77
2021/07/06 07:04:21;;;;;;;11.90;10.68;;;;;;;23.03;100.00;100437.88;1652555;86;21032;-81
2021/07/06 07:06:47;;;;;;;11.22;9.85;;;;;;;23.10;100.00;100436.63;1648814;86;21076;-80
2021/07/06 07:09:15;;;;;;;13.60;9.85;;;;;;;23.19;100.00;100436.82;1649445;85;20984;-85
2021/07/06 07:11:45;;;;;;;14.05;10.15;;;;;;;23.28;100.00;100437.52;1651455;86;21062;-80
2021/07/06 07:14:13;;;;;;;11.10;9.73;;;;;;;23.36;100.00;100436.05;1649759;85;20956;-83
2021/07/06 07:16:41;;;;;;;14.53;9.63;;;;;;;23.44;100.00;100446.06;1650400;86;21693;-84
2021/07/06 07:19:08;;;;;;;10.38;9.35;;;;;;;23.53;100.00;100444.92;1648259;85;21572;-87
2021/07/06 07:21:35;;;;;;;13.00;11.10;;;;;;;23.62;100.00;100450.40;1648096;86;21039;-88
2021/07/06 07:24:02;;;;;;;11.33;9.90;;;;;;;23.70;100.00;100448.13;1646852;86;21155;-78
2021/07/06 07:26:29;;;;;;;12.28;9.75;;;;;;;23.73;100.00;100453.55;1649261;85;21100;-85
2021/07/06 07:28:57;;;;;;;10.55;9.40;;;;;;;23.77;100.00;100453.48;1620996;86;21123;-80
2021/07/06 07:31:26;;;;;;;16.10;9.83;;;;;;;23.80;100.00;100455.25;1647408;85;21127;-82
2021/07/06 07:33:52;;;;;;;16.00;9.83;;;;;;;23.88;100.00;100464.37;1647611;87;21110;-84
2021/07/06 07:36:19;;;;;;;11.88;9.70;;;;;;;23.96;100.00;100461.59;1647706;87;21953;-85
2021/07/06 07:38:47;;;;;;;12.00;9.55;;;;;;;24.04;100.00;100461.44;1623938;87;21106;-80
2021/07/06 07:41:13;;;;;;;11.22;9.35;;;;;;;24.07;100.00;100460.23;1647786;86;21030;-81
2021/07/06 07:43:54;;;;;;;15.60;10.18;;;;;;;24.09;100.00;100466.97;1647387;86;20980;-79
2021/07/06 07:46:14;;;;;;;12.55;9.75;;;;;;;24.09;100.00;100472.27;1647497;85;21558;-84
2021/07/06 07:48:41;;;;;;;12.03;9.63;;;;;;;24.10;100.00;100470.45;1647814;85;21141;-81
2021/07/06 07:51:08;;;;;;;11.25;8.80;;;;;;;24.13;100.00;100471.41;1627513;87;21028;-86
2021/07/06 07:53:35;;;;;;;11.78;9.58;;;;;;;24.18;100.00;100465.87;1644313;85;21145;-85
2021/07/06 07:56:06;;;;;;;13.20;10.28;;;;;;;24.32;100.00;100466.75;1687563;83;21085;-86
2021/07/06 07:58:34;;;;;;;11.25;9.25;;;;;;;24.45;100.00;100469.98;1677918;85;21073;-85
2021/07/06 08:01:03;;;;;;;14.05;9.43;;;;;;;24.63;100.00;100476.94;1678257;84;21980;-82
2021/07/06 08:03:30;;;;;;;13.48;9.78;;;;;;;24.73;100.00;100470.23;1678068;85;21569;-82
2021/07/06 08:05:58;;;;;;;11.18;9.65;;;;;;;24.78;100.00;100476.29;1678329;85;21056;-88
2021/07/06 08:08:27;;;;;;;12.90;10.53;;;;;;;24.79;100.00;100472.62;1678265;84;21086;-87
2021/07/06 08:10:58;;;;;;;12.15;9.40;;;;;;;24.75;100.00;100480.67;1678284;84;21034;-86
2021/07/06 08:13:25;;;;;;;10.75;9.30;;;;;;;24.75;100.00;100486.80;1639490;85;21104;-80
2021/07/06 08:15:55;;;;;;;9.68;8.78;;;;;;;24.76;100.00;100489.74;1602141;89;21001;-84
2021/07/06 08:18:22;;;;;;;10.45;8.85;;;;;;;24.80;100.00;100486.19;1623049;88;21099;-86
2021/07/06 08:20:49;;;;;;;10.03;8.98;;;;;;;24.85;100.00;100491.77;1623353;88;21025;-82
2021/07/06 08:23:16;;;;;;;14.18;9.08;;;;;;;24.85;100.00;100490.45;1622809;88;21110;-81
2021/07/06 08:25:46;;;;;;;11.68;9.13;;;;;;;24.89;100.00;100492.99;1623050;88;39225;-82
2021/07/06 08:28:13;;;;;;;12.05;8.88;;;;;;;24.94;100.00;100494.56;1622876;87;21151;-81
2021/07/06 08:30:40;;;;;;;12.15;9.10;;;;;;;24.96;100.00;100491.19;1624307;86;21630;-84
2021/07/06 08:33:07;;;;;;;11.53;8.73;;;;;;;25.04;100.00;100489.70;1624721;87;21743;-84
2021/07/06 08:35:34;;;;;;;11.05;8.38;;;;;;;25.13;98.90;100489.83;1625367;88;21008;-81
2021/07/06 08:38:00;;;;;;;14.43;8.65;;;;;;;25.17;96.66;100486.27;1625477;88;21120;-83
2021/07/06 08:40:28;;;;;;;16.52;8.83;;;;;;;25.14;96.88;100486.67;1625019;88;21027;-80
2021/07/06 08:42:58;;;;;;;12.90;8.48;;;;;;;25.13;98.22;100485.84;1624618;87;21130;-86
2021/07/06 08:45:24;;;;;;;8.98;8.00;;;;;;;25.13;95.21;100488.50;1615072;87;21061;-81
2021/07/06 08:47:53;;;;;;;12.28;8.08;;;;;;;25.09;96.43;100487.26;1636700;87;21001;-81
2021/07/06 08:50:23;;;;;;;11.53;8.00;;;;;;;25.11;95.87;100489.73;1617659;87;21158;-83
2021/07/06 08:52:52;;;;;;;9.28;8.00;;;;;;;25.14;96.10;100484.81;1638066;87;21119;-88
2021/07/06 08:55:20;;;;;;;15.10;8.18;;;;;;;25.15;94.04;100489.62;1638925;87;21597;-82
2021/07/06 08:57:48;;;;;;;14.13;7.85;;;;;;;25.19;95.29;100485.55;1637963;87;21068;-89
2021/07/06 09:00:17;;;;;;;11.95;8.28;;;;;;;25.25;93.75;100480.77;1638105;87;21306;-85
2021/07/06 09:03:05;;;;;;;8.73;7.83;;;;;;;25.31;94.00;100485.27;1638262;86;21294;-82
2021/07/06 09:05:33;;;;;;;14.43;8.83;;;;;;;25.38;93.37;100488.77;1637860;86;20996;-86
2021/07/06 09:08:00;;;;;;;11.65;8.10;;;;;;;25.41;94.85;100489.69;1638173;87;21036;-82
2021/07/06 09:10:37;;;;;;;9.05;7.58;;;;;;;25.38;94.61;100495.91;1637938;87;21088;-85
2021/07/06 09:13:30;;;;;;;8.95;8.05;;;;;;;25.34;93.13;100493.34;1638190;87;21076;-86
2021/07/06 09:15:59;;;;;;;11.68;7.87;;;;;;;25.40;94.62;100492.03;1637694;86;21070;-82
2021/07/06 09:18:33;;;;;;;11.30;8.10;;;;;;;25.61;91.73;100493.75;1638053;87;21738;-87
2021/07/06 09:21:09;;;;;;;10.43;7.83;;;;;;;25.69;92.01;100490.38;1637952;87;21560;-80
2021/07/06 09:23:41;;;;;;;9.93;7.58;;;;;;;25.81;93.64;100488.45;1638063;87;21108;-82
2021/07/06 09:26:32;;;;;;;11.65;7.65;;;;;;;26.00;92.96;100478.33;1638049;87;21627;-86
2021/07/06 09:28:59;;;;;;;12.37;8.37;;;;;;;26.11;90.32;100489.66;1618194;87;21792;-85
2021/07/06 09:31:36;;;;;;;8.03;6.62;;;;;;;26.12;89.87;100488.13;1663975;84;21082;-87
2021/07/06 09:34:11;;;;;;;8.95;6.95;;;;;;;26.11;89.53;100485.16;1663864;86;21082;-80
2021/07/06 09:36:47;;;;;;;9.13;7.53;;;;;;;26.20;89.81;100482.62;1674550;85;21636;-88
2021/07/06 09:39:21;;;;;;;8.15;6.70;;;;;;;26.35;86.74;100489.56;1688457;85;21066;-80
2021/07/06 09:42:03;;;;;;;9.28;7.17;;;;;;;26.37;85.22;100491.49;1668013;85;21133;-85
2021/07/06 09:44:40;;;;;;;11.78;7.60;;;;;;;26.32;83.90;100488.66;1665706;85;21062;-84
2021/07/06 09:47:13;;;;;;;10.90;6.92;;;;;;;26.27;84.93;100486.59;1666911;85;21105;-86
2021/07/06 09:49:49;;;;;;;8.30;7.37;;;;;;;26.24;84.63;100483.02;1666508;86;21097;-85
2021/07/06 09:52:18;;;;;;;7.65;6.70;;;;;;;26.15;85.30;100490.38;1642741;86;21098;-83
2021/07/06 09:54:49;;;;;;;13.58;8.00;;;;;;;26.08;86.14;100492.73;1666978;85;21102;-80
2021/07/06 09:57:29;;;;;;;9.63;6.90;;;;;;;26.03;87.57;100489.38;1666685;84;21026;-88
2021/07/06 10:00:14;;;;;;;8.58;6.92;;;;;;;26.05;87.14;100496.62;1666611;85;21066;-85
2021/07/06 10:02:44;;;;;;;10.43;7.40;;;;;;;26.12;87.31;100502.77;1666737;84;21137;-81
2021/07/06 10:05:20;;;;;;;9.48;7.62;;;;;;;26.18;85.34;100503.30;1666404;86;21641;-81
2021/07/06 10:07:48;;;;;;;10.95;8.08;;;;;;;26.26;86.47;100504.94;1666427;86;21799;-82
2021/07/06 10:10:16;;;;;;;8.38;7.03;;;;;;;26.33;84.33;100500.40;1666607;85;21023;-87
2021/07/06 10:12:46;;;;;;;15.50;7.87;;;;;;;26.43;83.65;100504.78;1666518;85;21056;-80
2021/07/06 10:15:17;;;;;;;7.58;6.22;;;;;;;26.67;85.46;100496.66;1666737;86;21050;-85
2021/07/06 10:17:44;;;;;;;8.03;7.05;;;;;;;27.03;82.66;100498.27;1666203;86;21098;-85
2021/07/06 10:20:13;;;;;;;8.38;7.50;;;;;;;27.30;78.51;100506.44;1666582;86;21124;-82
2021/07/06 10:22:40;;;;;;;12.73;7.85;;;;;;;27.33;79.16;100517.19;1665978;85;21074;-82
2021/07/06 10:25:10;;;;;;;9.18;7.35;;;;;;;27.15;79.31;100514.42;1666073;85;21622;-84
2021/07/06 10:27:41;;;;;;;10.32;7.30;;;;;;;26.95;79.90;100517.16;1666000;86;21083;-79
2021/07/06 10:30:17;;;;;;;;;;;;;;;26.81;81.18;100518.23;1671773;84;21604;-79
2021/07/06 10:32:52;;;;;;;8.23;7.30;;;;;;;26.76;82.00;100512.70;1666813;86;21079;-81
2021/07/06 10:35:45;;;;;;;12.90;6.50;;;;;;;26.74;81.58;100512.89;1666863;86;21089;-84
2021/07/06 10:38:32;;;;;;;7.28;6.53;;;;;;;26.77;81.45;100512.47;1666759;86;26899;-77
2021/07/06 10:41:21;;;;;;;11.00;6.70;;;;;;;26.78;79.25;100516.77;1666955;85;21018;-80
2021/07/06 10:43:51;;;;;;;17.52;6.65;;;;;;;26.86;78.92;100522.94;1666634;86;21070;-79
2021/07/06 10:46:30;;;;;;;9.38;6.08;;;;;;;26.94;79.50;100525.34;1666746;86;21176;-85
2021/07/06 10:49:15;;;;;;;7.78;6.50;;;;;;;27.01;80.46;100520.81;1666504;85;21042;-81
2021/07/06 10:51:48;;;;;;;8.88;6.22;;;;;;;27.04;79.91;100518.55;1659573;85;21706;-80
2021/07/06 10:54:34;;;;;;;8.00;6.53;;;;;;;27.11;79.89;100519.34;1666649;86;21063;-82
2021/07/06 10:57:13;;;;;;;8.25;6.30;;;;;;;27.09;78.14;100524.05;1666928;86;21051;-79
2021/07/06 10:59:40;;;;;;;7.35;6.65;;;;;;;27.07;77.28;100523.45;1666761;85;21154;-77
2021/07/06 11:02:14;;;;;;;8.35;5.72;;;;;;;27.05;77.92;100524.70;1666472;86;21015;-81
2021/07/06 11:04:46;;;;;;;10.88;6.10;;;;;;;27.10;78.08;100528.36;1666342;85;21059;-86
2021/07/06 11:07:34;;;;;;;8.43;6.65;;;;;;;27.20;78.41;100526.06;1666190;86;21028;-79
2021/07/06 11:10:07;;;;;;;7.85;7.05;;;;;;;27.30;78.53;100529.09;1666215;85;21062;-82
2021/07/06 11:12:48;;;;;;;9.80;5.83;;;;;;;27.26;77.63;100530.54;1666422;86;21125;-79
2021/07/06 11:15:26;;;;;;;7.00;6.28;;;;;;;27.15;75.52;100531.73;1666736;85;21026;-82
2021/07/06 11:18:15;;;;;;;6.72;5.72;;;;;;;27.11;75.37;100527.84;1666544;85;21661;-83
2021/07/06 11:20:45;;;;;;;7.67;5.95;;;;;;;27.19;76.51;100526.27;1665972;86;21074;-85